Time;durP1;ratioP1;P1;durP2;ratioP2;P2;SDS_P1;SDS_P2;PMS_P1;PMS_P2;Temp;Humidity;BMP_temperature;BMP_pressure;BME280_temperature;BME280_humidity;BME280_pressure;Samples;Min_cycle;Max_cycle;Signal;HPM_P1;HPM_P2
2022/01/05 00:00:33;;;;;;;5.82;2.35;;;5.80;92.90;;;;;;5038523;28;20022;-71
2022/01/05 00:02:59;;;;;;;12.05;7.85;;;5.80;93.00;;;;;;5046230;28;20025;-71
2022/01/05 00:05:24;;;;;;;12.57;8.95;;;5.80;93.30;;;;;;5038212;28;20120;-70
2022/01/05 00:07:50;;;;;;;12.38;8.55;;;5.80;93.70;;;;;;5036849;28;20029;-70
2022/01/05 00:10:16;;;;;;;7.60;4.22;;;5.80;93.50;;;;;;5047914;28;20100;-71
2022/01/05 00:12:41;;;;;;;13.70;8.93;;;5.80;93.50;;;;;;5049755;28;20141;-70
2022/01/05 00:15:09;;;;;;;5.10;2.90;;;5.80;94.10;;;;;;5047865;28;20029;-70
2022/01/05 00:17:35;;;;;;;12.27;8.48;;;5.70;94.00;;;;;;5052737;28;20017;-70
2022/01/05 00:20:02;;;;;;;4.55;2.95;;;5.70;94.60;;;;;;5053827;28;20523;-70
2022/01/05 00:22:28;;;;;;;9.20;3.70;;;5.80;94.50;;;;;;5036318;28;20490;-70
2022/01/05 00:24:54;;;;;;;15.75;10.43;;;5.70;94.70;;;;;;5036425;28;20029;-70
2022/01/05 00:27:19;;;;;;;14.77;9.82;;;5.70;95.70;;;;;;5036103;28;20035;-70
2022/01/05 00:29:45;;;;;;;9.07;3.38;;;5.70;96.00;;;;;;5046724;28;20028;-70
2022/01/05 00:32:11;;;;;;;15.27;10.55;;;5.70;95.70;;;;;;5040916;28;20039;-71
2022/01/05 00:34:36;;;;;;;11.50;5.10;;;5.60;96.40;;;;;;5037131;28;20466;-70
2022/01/05 00:37:02;;;;;;;16.90;10.60;;;5.70;96.00;;;;;;5040480;28;20035;-70
2022/01/05 00:39:28;;;;;;;7.78;4.45;;;5.70;96.90;;;;;;5046737;28;20086;-70
2022/01/05 00:41:54;;;;;;;18.75;11.02;;;5.60;96.30;;;;;;5040092;28;20084;-70
2022/01/05 00:44:20;;;;;;;7.55;4.30;;;5.50;97.50;;;;;;5040225;28;20031;-70
2022/01/05 00:46:46;;;;;;;15.48;11.55;;;5.60;97.20;;;;;;5056358;28;20068;-71
2022/01/05 00:49:12;;;;;;;9.25;4.97;;;5.50;98.40;;;;;;5050754;28;20483;-70
2022/01/05 00:51:38;;;;;;;14.40;10.60;;;5.50;97.90;;;;;;5034410;28;20087;-70
2022/01/05 00:54:05;;;;;;;16.92;11.68;;;5.50;99.00;;;;;;5038387;28;20025;-70
2022/01/05 00:56:31;;;;;;;14.88;10.85;;;5.50;99.50;;;;;;5041597;28;20163;-71
2022/01/05 00:58:58;;;;;;;11.20;5.47;;;5.50;99.80;;;;;;5049440;28;21952;-70
2022/01/05 01:01:24;;;;;;;15.90;10.45;;;5.50;99.10;;;;;;5051432;28;20028;-70
2022/01/05 01:03:50;;;;;;;16.20;11.15;;;5.50;99.90;;;;;;5052078;28;20025;-70
2022/01/05 01:06:16;;;;;;;5.15;2.75;;;5.50;99.90;;;;;;5045041;28;20514;-70
2022/01/05 01:08:41;;;;;;;6.88;3.50;;;5.50;99.30;;;;;;5054057;28;20064;-70
2022/01/05 01:11:07;;;;;;;5.25;3.20;;;5.40;99.40;;;;;;5037206;28;20033;-70
2022/01/05 01:13:33;;;;;;;14.73;10.73;;;5.50;99.50;;;;;;5053107;28;20084;-70
2022/01/05 01:15:59;;;;;;;3.00;2.65;;;5.40;99.90;;;;;;5042284;28;20029;-70
2022/01/05 01:18:25;;;;;;;17.77;10.50;;;5.40;99.90;;;;;;5054543;28;20071;-70
2022/01/05 01:20:51;;;;;;;3.72;2.55;;;5.40;99.90;;;;;;5043641;28;20013;-70
2022/01/05 01:23:20;;;;;;;7.85;4.18;;;5.50;99.80;;;;;;5051413;28;20492;-70
2022/01/05 01:25:46;;;;;;;14.40;9.65;;;5.50;99.90;;;;;;5035593;28;20033;-70
2022/01/05 01:28:12;;;;;;;5.80;2.67;;;5.40;99.90;;;;;;5034197;28;20029;-70
2022/01/05 01:30:38;;;;;;;2.97;2.65;;;5.40;99.90;;;;;;5049522;28;20360;-70
2022/01/05 01:33:03;;;;;;;9.90;8.02;;;5.40;99.90;;;;;;5036231;28;20045;-70
2022/01/05 01:35:29;;;;;;;12.20;8.73;;;5.40;99.90;;;;;;5044944;28;20471;-70
2022/01/05 01:37:55;;;;;;;12.88;8.70;;;5.40;99.90;;;;;;5054566;28;20394;-70
2022/01/05 01:40:21;;;;;;;10.95;8.68;;;5.50;99.90;;;;;;5053089;28;20083;-70
2022/01/05 01:42:48;;;;;;;12.18;8.25;;;5.50;99.90;;;;;;5047554;28;20036;-70
2022/01/05 01:45:14;;;;;;;12.75;8.27;;;5.50;99.90;;;;;;5052036;28;20025;-70
2022/01/05 01:47:40;;;;;;;5.75;3.13;;;5.50;99.90;;;;;;5053512;28;20409;-70
2022/01/05 01:50:06;;;;;;;6.07;3.90;;;5.40;99.90;;;;;;5049929;28;20467;-70
2022/01/05 01:52:32;;;;;;;5.10;3.38;;;5.40;99.90;;;;;;5033539;28;20043;-70
2022/01/05 01:54:58;;;;;;;15.07;8.77;;;5.40;99.90;;;;;;5039001;28;20455;-70
2022/01/05 01:57:25;;;;;;;14.43;8.73;;;5.40;99.90;;;;;;5053490;28;20041;-70
2022/01/05 01:59:51;;;;;;;6.07;3.58;;;5.30;99.90;;;;;;5043790;28;20029;-70
2022/01/05 02:02:17;;;;;;;5.22;3.13;;;5.30;99.90;;;;;;5036465;28;20092;-70
2022/01/05 02:04:46;;;;;;;12.98;9.20;;;5.30;99.90;;;;;;5038551;28;20390;-70
2022/01/05 02:07:11;;;;;;;5.82;3.25;;;5.30;99.90;;;;;;5033289;28;20116;-70
2022/01/05 02:09:40;;;;;;;7.35;2.95;;;5.30;99.90;;;;;;5042951;28;20184;-70
2022/01/05 02:12:06;;;;;;;12.38;9.38;;;5.30;99.90;;;;;;5053857;28;20390;-70
2022/01/05 02:14:33;;;;;;;6.88;3.05;;;5.20;99.90;;;;;;5054483;28;20029;-70
2022/01/05 02:17:03;;;;;;;11.63;9.15;;;5.30;99.90;;;;;;5037210;28;20100;-70
2022/01/05 02:19:28;;;;;;;13.02;9.43;;;5.30;99.90;;;;;;5053063;28;20031;-70
2022/01/05 02:21:54;;;;;;;9.13;3.83;;;5.30;99.90;;;;;;5039536;28;20458;-70
2022/01/05 02:24:20;;;;;;;13.85;9.35;;;5.30;99.90;;;;;;5037846;28;20340;-70
2022/01/05 02:26:45;;;;;;;13.20;8.93;;;5.20;99.90;;;;;;5042960;28;20075;-70
2022/01/05 02:29:11;;;;;;;6.65;3.92;;;5.20;99.90;;;;;;5045306;28;20033;-70
2022/01/05 02:31:36;;;;;;;6.40;3.38;;;5.30;99.90;;;;;;5034993;28;20041;-71
2022/01/05 02:34:02;;;;;;;13.07;9.65;;;5.20;99.90;;;;;;5042817;28;20037;-70
2022/01/05 02:36:28;;;;;;;14.35;9.65;;;5.20;99.90;;;;;;5039389;28;20033;-70
2022/01/05 02:38:54;;;;;;;2.08;1.52;;;5.20;99.90;;;;;;5037449;28;20044;-71
2022/01/05 02:41:20;;;;;;;8.15;3.20;;;5.20;99.90;;;;;;5035428;28;20478;-71
2022/01/05 02:43:46;;;;;;;14.18;9.95;;;5.20;99.90;;;;;;5034305;28;20057;-70
2022/01/05 02:46:15;;;;;;;13.95;9.65;;;5.20;99.90;;;;;;5032755;28;20029;-70
2022/01/05 02:48:41;;;;;;;5.28;3.15;;;5.20;99.90;;;;;;5033952;28;20025;-70
2022/01/05 02:51:07;;;;;;;5.53;3.13;;;5.20;99.90;;;;;;5033009;28;20041;-71
2022/01/05 02:53:34;;;;;;;12.77;9.05;;;5.20;99.90;;;;;;5044663;28;20040;-70
2022/01/05 02:56:00;;;;;;;14.10;9.50;;;5.20;99.90;;;;;;5045003;28;20032;-71
2022/01/05 02:58:25;;;;;;;4.15;2.38;;;5.20;99.90;;;;;;5051213;28;20038;-70
2022/01/05 03:00:51;;;;;;;7.10;3.60;;;5.20;99.90;;;;;;5045795;28;20502;-71
2022/01/05 03:03:16;;;;;;;12.48;8.80;;;5.20;99.90;;;;;;5042433;28;20029;-70
2022/01/05 03:05:42;;;;;;;3.60;3.00;;;5.20;99.90;;;;;;5038624;28;20035;-70
2022/01/05 03:08:08;;;;;;;5.28;2.55;;;5.30;99.90;;;;;;5041831;28;20025;-71
2022/01/05 03:10:34;;;;;;;5.28;2.78;;;5.30;99.90;;;;;;5042603;28;20040;-70
2022/01/05 03:13:00;;;;;;;12.70;8.98;;;5.30;99.90;;;;;;5038354;28;20053;-70
2022/01/05 03:15:27;;;;;;;3.78;2.60;;;5.30;99.90;;;;;;5038494;28;20075;-70
2022/01/05 03:17:52;;;;;;;12.23;8.45;;;5.40;99.90;;;;;;5052128;28;20025;-70
2022/01/05 03:20:19;;;;;;;11.80;8.73;;;5.40;99.90;;;;;;5051645;28;20039;-70
2022/01/05 03:22:45;;;;;;;5.07;3.38;;;5.50;99.90;;;;;;5042216;28;20418;-70
2022/01/05 03:25:15;;;;;;;4.32;2.75;;;5.50;99.90;;;;;;5035750;28;20034;-70
2022/01/05 03:27:46;;;;;;;10.93;8.60;;;5.50;99.90;;;;;;5050421;28;20386;-70
2022/01/05 03:30:14;;;;;;;12.25;8.50;;;5.50;99.90;;;;;;5033787;28;20452;-70
2022/01/05 03:33:25;;;;;;;12.80;8.93;;;5.50;99.90;;;;;;5043678;28;20127;-70
2022/01/05 03:35:31;;;;;;;5.35;3.00;;;5.60;99.90;;;;;;5045335;28;20044;-70
2022/01/05 03:37:58;;;;;;;11.43;8.35;;;5.60;99.90;;;;;;5047037;28;20025;-70
2022/01/05 03:40:24;;;;;;;7.50;3.00;;;5.70;99.90;;;;;;5038705;28;20029;-70
2022/01/05 03:42:50;;;;;;;6.05;3.45;;;5.80;99.90;;;;;;5045285;28;20105;-70
2022/01/05 03:45:16;;;;;;;10.85;8.45;;;5.80;99.90;;;;;;5032937;28;20037;-70
2022/01/05 03:47:42;;;;;;;12.30;8.75;;;5.80;99.90;;;;;;5032037;28;20029;-70
2022/01/05 03:50:08;;;;;;;11.93;8.35;;;5.90;99.90;;;;;;5045375;28;20028;-70
2022/01/05 03:52:34;;;;;;;12.23;8.35;;;6.00;99.90;;;;;;5033216;28;20033;-70
2022/01/05 03:55:00;;;;;;;5.65;3.22;;;6.00;99.90;;;;;;5036240;28;20103;-71
2022/01/05 03:57:26;;;;;;;11.75;8.00;;;6.00;99.90;;;;;;5034010;28;20064;-71
2022/01/05 03:59:52;;;;;;;8.13;3.72;;;6.00;99.90;;;;;;5049533;28;20157;-70
2022/01/05 04:02:19;;;;;;;12.10;8.85;;;6.00;99.90;;;;;;5051357;28;20040;-70
2022/01/05 04:04:46;;;;;;;14.75;9.02;;;6.10;99.90;;;;;;5055029;28;20126;-71
2022/01/05 04:07:12;;;;;;;11.95;4.95;;;6.10;99.90;;;;;;5043524;28;20021;-71
2022/01/05 04:09:37;;;;;;;8.63;4.40;;;6.10;99.90;;;;;;5049885;28;20028;-71
2022/01/05 04:12:03;;;;;;;13.23;9.10;;;6.10;99.90;;;;;;5055957;28;20041;-71
2022/01/05 04:14:29;;;;;;;11.38;8.70;;;6.00;99.90;;;;;;5049928;28;20103;-71
2022/01/05 04:16:55;;;;;;;4.28;2.78;;;6.10;99.90;;;;;;5038319;28;20037;-71
2022/01/05 04:19:21;;;;;;;13.40;8.40;;;6.10;99.90;;;;;;5037569;28;20025;-71
2022/01/05 04:21:46;;;;;;;7.25;3.65;;;6.10;99.90;;;;;;5048278;28;20033;-68
2022/01/05 04:24:12;;;;;;;12.65;8.52;;;6.10;99.90;;;;;;5037133;28;20056;-70
2022/01/05 04:26:38;;;;;;;12.13;7.95;;;6.10;99.90;;;;;;5037308;28;20086;-70
2022/01/05 04:29:03;;;;;;;13.32;9.20;;;6.10;99.90;;;;;;5037400;28;20109;-70
2022/01/05 04:31:29;;;;;;;16.98;10.80;;;6.10;99.90;;;;;;5037504;28;20061;-70
2022/01/05 04:33:54;;;;;;;6.60;3.20;;;6.10;99.90;;;;;;5035301;28;20033;-69
2022/01/05 04:36:20;;;;;;;18.40;10.98;;;6.20;99.90;;;;;;5036441;28;20478;-70
2022/01/05 04:38:46;;;;;;;9.18;4.75;;;6.10;99.90;;;;;;5037203;28;20380;-69
2022/01/05 04:41:11;;;;;;;20.38;12.10;;;6.10;99.90;;;;;;5037847;28;20076;-70
2022/01/05 04:43:37;;;;;;;24.50;12.27;;;6.10;99.90;;;;;;5055853;28;20066;-70
2022/01/05 04:46:03;;;;;;;20.13;11.60;;;6.10;99.90;;;;;;5055889;28;20082;-70
2022/01/05 04:48:29;;;;;;;21.38;12.27;;;6.20;99.90;;;;;;5056056;28;20383;-70
2022/01/05 04:50:55;;;;;;;19.95;12.32;;;6.10;99.90;;;;;;5055141;28;20025;-71
2022/01/05 04:53:21;;;;;;;7.55;3.45;;;6.10;99.90;;;;;;5055822;28;20098;-70
2022/01/05 04:55:46;;;;;;;17.30;10.27;;;6.20;99.80;;;;;;5054649;28;20154;-70
2022/01/05 04:58:12;;;;;;;8.27;4.32;;;6.10;99.90;;;;;;5053805;28;20029;-70
2022/01/05 05:00:38;;;;;;;12.70;9.23;;;6.10;99.90;;;;;;5055835;28;20021;-70
2022/01/05 05:03:03;;;;;;;14.65;10.50;;;6.10;99.90;;;;;;5055804;28;20495;-70
2022/01/05 05:05:29;;;;;;;3.80;2.55;;;6.10;99.90;;;;;;5049395;28;20034;-70
2022/01/05 05:07:57;;;;;;;15.48;9.70;;;6.10;99.90;;;;;;5034392;28;20415;-71
2022/01/05 05:10:23;;;;;;;16.73;9.90;;;6.10;99.90;;;;;;5035639;28;20109;-70
2022/01/05 05:12:49;;;;;;;21.83;13.20;;;6.10;99.90;;;;;;5036388;28;20140;-70
2022/01/05 05:15:15;;;;;;;19.17;13.00;;;6.10;99.90;;;;;;5037151;28;20353;-70
2022/01/05 05:17:40;;;;;;;16.33;10.68;;;6.10;99.90;;;;;;5055561;28;20021;-70
2022/01/05 05:20:07;;;;;;;14.70;10.52;;;6.20;99.90;;;;;;5052831;28;20067;-70
2022/01/05 05:22:34;;;;;;;5.95;3.20;;;6.20;99.90;;;;;;5034780;28;20042;-70
2022/01/05 05:24:59;;;;;;;13.63;9.93;;;6.20;99.90;;;;;;5035177;28;20072;-70
2022/01/05 05:27:25;;;;;;;8.57;3.50;;;6.20;99.90;;;;;;5034517;28;20375;-70
2022/01/05 05:29:50;;;;;;;6.97;3.83;;;6.30;99.90;;;;;;5036626;28;20433;-70
2022/01/05 05:32:16;;;;;;;13.85;9.40;;;6.30;99.90;;;;;;5046484;28;20033;-71
2022/01/05 05:34:42;;;;;;;12.85;9.35;;;6.30;99.90;;;;;;5054959;28;20029;-69
2022/01/05 05:37:07;;;;;;;13.15;10.88;;;6.30;99.90;;;;;;5054981;28;20029;-71
2022/01/05 05:39:33;;;;;;;11.27;5.78;;;6.40;99.90;;;;;;5053578;28;20071;-70
2022/01/05 05:41:59;;;;;;;15.93;11.45;;;6.40;99.30;;;;;;5055267;28;20032;-70
2022/01/05 05:44:24;;;;;;;19.08;13.43;;;6.30;99.50;;;;;;5054928;28;20455;-70
2022/01/05 05:46:50;;;;;;;8.95;5.68;;;6.30;99.40;;;;;;5054657;28;20025;-69
2022/01/05 05:49:16;;;;;;;10.73;4.28;;;6.30;98.90;;;;;;5054731;28;20025;-69
2022/01/05 05:51:41;;;;;;;20.80;12.00;;;6.20;99.30;;;;;;5053540;28;20029;-69
2022/01/05 05:54:07;;;;;;;14.60;4.53;;;6.20;99.90;;;;;;5053650;28;20106;-69
2022/01/05 05:56:33;;;;;;;16.75;10.90;;;6.10;99.60;;;;;;5054689;28;20029;-69
2022/01/05 05:58:58;;;;;;;13.63;10.10;;;6.00;99.90;;;;;;5053464;28;20024;-69
2022/01/05 06:01:24;;;;;;;9.15;4.60;;;6.10;99.90;;;;;;5053330;28;20086;-66
2022/01/05 06:03:50;;;;;;;14.23;10.52;;;6.10;99.90;;;;;;5054606;28;20021;-67
2022/01/05 06:06:15;;;;;;;13.23;9.65;;;6.10;99.90;;;;;;5053283;28;20024;-66
2022/01/05 06:08:42;;;;;;;14.98;10.52;;;6.10;99.90;;;;;;5054576;28;20028;-69
2022/01/05 06:11:08;;;;;;;5.30;3.40;;;6.10;99.90;;;;;;5052995;28;20032;-67
2022/01/05 06:13:34;;;;;;;14.93;10.40;;;6.10;99.90;;;;;;5052756;28;20057;-67
2022/01/05 06:15:59;;;;;;;18.50;12.32;;;6.10;99.90;;;;;;5052945;28;20116;-67
2022/01/05 06:18:25;;;;;;;27.02;14.65;;;6.10;99.90;;;;;;5054182;28;20049;-66
2022/01/05 06:20:50;;;;;;;17.63;7.35;;;6.10;99.90;;;;;;5054189;28;20025;-67
2022/01/05 06:23:16;;;;;;;23.80;10.50;;;6.10;99.90;;;;;;5054225;28;20032;-67
2022/01/05 06:25:42;;;;;;;80.65;37.42;;;6.00;99.90;;;;;;5051845;28;20033;-67
2022/01/05 06:28:11;;;;;;;35.75;15.80;;;6.00;99.90;;;;;;5052193;28;20029;-67
2022/01/05 06:30:40;;;;;;;103.10;46.13;;;6.10;99.90;;;;;;5053783;28;20025;-67
2022/01/05 06:33:07;;;;;;;79.85;36.83;;;6.10;99.90;;;;;;5052623;28;20029;-66
2022/01/05 06:35:33;;;;;;;42.78;14.88;;;6.20;99.90;;;;;;5053900;28;20037;-66
2022/01/05 06:37:59;;;;;;;67.28;32.45;;;6.20;99.90;;;;;;5053969;28;20463;-67
2022/01/05 06:40:24;;;;;;;97.93;42.47;;;6.20;99.90;;;;;;5053988;28;20025;-66
2022/01/05 06:42:50;;;;;;;79.97;35.95;;;6.20;99.90;;;;;;5053702;28;20067;-66
2022/01/05 06:45:16;;;;;;;40.85;14.20;;;6.30;99.90;;;;;;5053598;28;20029;-66
2022/01/05 06:47:42;;;;;;;39.17;21.90;;;6.30;99.90;;;;;;5053726;28;20047;-66
2022/01/05 06:50:09;;;;;;;16.75;7.53;;;6.40;99.90;;;;;;5052598;28;20036;-67
2022/01/05 06:52:35;;;;;;;69.18;32.72;;;6.40;99.90;;;;;;5053487;28;20551;-68
2022/01/05 06:55:02;;;;;;;62.58;30.88;;;6.50;99.90;;;;;;5054004;28;20040;-67
2022/01/05 06:57:28;;;;;;;47.05;25.02;;;6.50;99.90;;;;;;5053521;28;20120;-68
2022/01/05 06:59:54;;;;;;;34.78;20.60;;;6.60;99.90;;;;;;5052580;28;20056;-68
2022/01/05 07:02:19;;;;;;;36.95;20.45;;;6.70;99.90;;;;;;5053779;28;20383;-68
2022/01/05 07:04:45;;;;;;;27.33;17.70;;;6.80;99.90;;;;;;5052540;28;20025;-68
2022/01/05 07:07:10;;;;;;;54.58;26.48;;;6.80;99.90;;;;;;5053548;28;20025;-69
2022/01/05 07:09:36;;;;;;;15.65;7.60;;;6.90;99.90;;;;;;5053850;28;20144;-68
2022/01/05 07:12:02;;;;;;;83.15;38.55;;;7.00;99.90;;;;;;5053380;28;20060;-68
2022/01/05 07:14:28;;;;;;;88.97;39.17;;;7.00;99.90;;;;;;5053685;28;20029;-68
2022/01/05 07:16:53;;;;;;;79.13;37.15;;;7.10;99.60;;;;;;5053872;28;20029;-68
2022/01/05 07:19:22;;;;;;;104.53;48.53;;;7.20;99.30;;;;;;5053486;28;20028;-68
2022/01/05 07:21:48;;;;;;;122.07;51.33;;;7.20;98.60;;;;;;5051775;28;20029;-68
2022/01/05 07:24:17;;;;;;;141.77;60.17;;;7.20;97.90;;;;;;5053519;28;20478;-68
2022/01/05 07:26:44;;;;;;;117.85;50.00;;;7.20;97.80;;;;;;5053500;28;20021;-67
2022/01/05 07:29:12;;;;;;;116.57;45.17;;;7.30;97.70;;;;;;5053314;28;20021;-69
2022/01/05 07:31:38;;;;;;;75.75;36.80;;;7.30;97.60;;;;;;5052076;28;20039;-69
2022/01/05 07:34:03;;;;;;;76.60;36.08;;;7.30;97.90;;;;;;5052098;28;20387;-67
2022/01/05 07:36:29;;;;;;;52.13;26.85;;;7.50;98.30;;;;;;5053231;28;20489;-67
2022/01/05 07:38:54;;;;;;;55.25;28.85;;;7.70;97.90;;;;;;5053895;28;20025;-67
2022/01/05 07:41:20;;;;;;;63.42;32.63;;;7.90;97.50;;;;;;5057324;28;20025;-68
2022/01/05 07:43:46;;;;;;;87.35;40.40;;;8.20;97.60;;;;;;5057327;28;20104;-67
2022/01/05 07:46:11;;;;;;;99.70;46.22;;;8.50;97.00;;;;;;5057206;28;20466;-68
2022/01/05 07:48:37;;;;;;;111.25;49.00;;;8.90;96.40;;;;;;5057253;28;20471;-67
2022/01/05 07:51:03;;;;;;;92.40;42.28;;;9.30;96.10;;;;;;5056643;28;20029;-67
2022/01/05 07:53:29;;;;;;;76.57;37.63;;;9.90;94.50;;;;;;5056187;28;20033;-69
2022/01/05 07:55:55;;;;;;;63.03;33.15;;;10.30;91.80;;;;;;5056332;28;20485;-67
2022/01/05 07:58:23;;;;;;;48.85;30.02;;;10.60;89.50;;;;;;5055255;28;20171;-68
2022/01/05 08:00:48;;;;;;;43.40;30.83;;;10.70;87.00;;;;;;5055430;28;20128;-70
2022/01/05 08:03:14;;;;;;;39.42;29.20;;;10.60;86.00;;;;;;5042707;28;20028;-68
2022/01/05 08:05:40;;;;;;;27.15;20.33;;;10.50;85.90;;;;;;5054801;28;20486;-67
2022/01/05 08:08:05;;;;;;;27.35;20.80;;;10.50;85.80;;;;;;5053138;28;20375;-68
2022/01/05 08:10:31;;;;;;;26.33;22.10;;;10.50;86.80;;;;;;5055588;28;20187;-67
2022/01/05 08:12:57;;;;;;;29.15;21.70;;;10.70;86.30;;;;;;5045705;28;20463;-69
2022/01/05 08:15:22;;;;;;;33.92;25.92;;;10.80;84.60;;;;;;5037222;28;20023;-65
2022/01/05 08:17:49;;;;;;;23.67;19.42;;;10.90;84.70;;;;;;5045798;28;20107;-69
2022/01/05 08:20:15;;;;;;;23.52;18.10;;;10.80;83.90;;;;;;5049601;28;20045;-67
2022/01/05 08:22:45;;;;;;;18.88;14.10;;;10.60;83.60;;;;;;5036257;28;20494;-66
2022/01/05 08:25:14;;;;;;;27.25;19.73;;;10.50;84.30;;;;;;5044763;28;20100;-68
2022/01/05 08:27:46;;;;;;;36.80;28.15;;;10.40;85.10;;;;;;5042080;28;20029;-66
2022/01/05 08:30:24;;;;;;;45.70;33.88;;;10.30;85.30;;;;;;5044852;28;20125;-68
2022/01/05 08:32:53;;;;;;;38.03;29.50;;;10.20;85.60;;;;;;5035950;28;20040;-69
2022/01/05 08:35:21;;;;;;;31.75;25.88;;;10.10;86.70;;;;;;5035524;28;20108;-67
2022/01/05 08:37:47;;;;;;;29.55;21.02;;;10.00;87.10;;;;;;5044185;28;20491;-66
2022/01/05 08:40:16;;;;;;;33.78;23.52;;;10.00;87.60;;;;;;5053133;28;20036;-67
2022/01/05 08:42:42;;;;;;;29.80;22.42;;;9.90;87.50;;;;;;5057987;28;20427;-68
2022/01/05 08:45:09;;;;;;;45.55;24.60;;;9.90;87.90;;;;;;5051151;28;20109;-65
2022/01/05 08:47:34;;;;;;;52.90;28.83;;;9.80;87.60;;;;;;5037144;28;20112;-65
2022/01/05 08:50:00;;;;;;;71.28;34.95;;;9.70;87.90;;;;;;5035490;28;20112;-67
2022/01/05 08:52:26;;;;;;;76.50;38.20;;;9.70;88.90;;;;;;5037028;28;20041;-72
2022/01/05 08:54:52;;;;;;;64.38;33.63;;;9.60;89.40;;;;;;5044899;28;20021;-66
2022/01/05 08:57:18;;;;;;;54.22;28.40;;;9.60;89.30;;;;;;5054706;28;20028;-67
2022/01/05 08:59:44;;;;;;;70.80;35.53;;;9.60;89.40;;;;;;5055885;28;20367;-65
2022/01/05 09:02:13;;;;;;;81.30;39.38;;;9.60;89.20;;;;;;5053792;28;20025;-66
2022/01/05 09:04:39;;;;;;;84.95;40.05;;;9.50;89.30;;;;;;5054398;28;20033;-68
2022/01/05 09:07:05;;;;;;;98.10;45.42;;;9.40;89.80;;;;;;5055741;28;20057;-67
2022/01/05 09:09:31;;;;;;;124.78;57.83;;;9.40;90.00;;;;;;5054423;28;20080;-66
2022/01/05 09:11:57;;;;;;;97.07;49.40;;;9.40;90.10;;;;;;5052690;28;20052;-67
2022/01/05 09:14:22;;;;;;;97.65;48.78;;;9.30;90.00;;;;;;5050976;28;20065;-69
2022/01/05 09:16:48;;;;;;;132.85;62.60;;;9.30;90.10;;;;;;5050118;28;20052;-66
2022/01/05 09:19:14;;;;;;;158.30;69.20;;;9.20;90.30;;;;;;5057566;28;20029;-67
2022/01/05 09:21:40;;;;;;;130.75;59.25;;;9.30;90.50;;;;;;5064057;28;20044;-67
2022/01/05 09:24:06;;;;;;;102.05;46.25;;;9.30;90.30;;;;;;5035306;28;20025;-65
2022/01/05 09:26:31;;;;;;;93.13;45.60;;;9.30;90.70;;;;;;5043054;28;20159;-67
2022/01/05 09:28:57;;;;;;;100.60;45.83;;;9.50;90.90;;;;;;5053254;28;20060;-67
2022/01/05 09:31:23;;;;;;;102.70;48.60;;;9.80;91.20;;;;;;5044580;28;20475;-67
2022/01/05 09:33:48;;;;;;;109.50;50.72;;;10.10;90.30;;;;;;5055009;28;20025;-67
2022/01/05 09:36:19;;;;;;;104.95;49.85;;;10.30;88.70;;;;;;5054958;28;20036;-67
2022/01/05 09:44:03;;;;;;;121.82;55.70;;;10.60;86.90;;;;;;5035376;28;20587;-66
2022/01/05 09:46:58;;;;;;;128.57;58.38;;;11.00;85.50;;;;;;5038453;28;20094;-69
2022/01/05 09:49:48;;;;;;;32.22;19.08;;;11.00;84.10;;;;;;5041803;28;20429;-69
2022/01/05 09:52:14;;;;;;;22.55;16.23;;;10.90;83.00;;;;;;5052760;28;20128;-69
2022/01/05 09:54:43;;;;;;;17.60;12.63;;;10.70;83.30;;;;;;5051344;28;20068;-69
2022/01/05 09:57:10;;;;;;;23.40;16.77;;;10.60;83.70;;;;;;5045114;28;20029;-69
2022/01/05 09:59:37;;;;;;;21.33;13.57;;;10.40;84.50;;;;;;5043517;28;20025;-68
2022/01/05 10:02:04;;;;;;;33.08;18.55;;;10.40;85.30;;;;;;5049162;28;20036;-69
2022/01/05 10:04:31;;;;;;;58.13;29.92;;;10.30;85.70;;;;;;5035359;28;20483;-69
2022/01/05 10:06:57;;;;;;;42.25;23.38;;;10.40;85.70;;;;;;5033750;28;20165;-67
2022/01/05 10:09:23;;;;;;;20.95;13.63;;;10.40;86.00;;;;;;5033223;28;20490;-65
2022/01/05 10:11:48;;;;;;;18.45;12.40;;;10.40;85.50;;;;;;5038729;28;20108;-71
2022/01/05 10:14:15;;;;;;;37.38;20.48;;;10.40;84.80;;;;;;5039973;28;20076;-68
2022/01/05 10:16:43;;;;;;;23.63;14.30;;;10.60;85.50;;;;;;5033162;28;20482;-70
2022/01/05 10:19:20;;;;;;;19.27;13.50;;;10.80;85.20;;;;;;5033768;28;20118;-68
2022/01/05 10:21:46;;;;;;;16.90;11.63;;;11.10;83.80;;;;;;5034539;28;20045;-68
2022/01/05 10:24:11;;;;;;;19.80;12.57;;;11.50;83.20;;;;;;5045776;28;20025;-69
2022/01/05 10:26:39;;;;;;;66.00;31.17;;;12.00;81.00;;;;;;5035581;28;20029;-69
2022/01/05 10:29:20;;;;;;;64.43;31.95;;;12.50;79.00;;;;;;5038009;28;20446;-70
2022/01/05 10:31:53;;;;;;;89.95;44.85;;;12.80;77.20;;;;;;5039918;28;20041;-68
2022/01/05 10:34:25;;;;;;;107.47;48.85;;;12.70;76.30;;;;;;5050452;28;20033;-67
2022/01/05 10:36:55;;;;;;;104.50;49.30;;;12.60;76.60;;;;;;5034856;28;20030;-68
2022/01/05 10:39:32;;;;;;;68.03;36.53;;;12.50;76.90;;;;;;5041719;28;20106;-69
2022/01/05 10:42:06;;;;;;;79.30;39.22;;;12.40;77.20;;;;;;5036546;28;20026;-68
2022/01/05 10:44:32;;;;;;;57.90;33.92;;;12.30;77.60;;;;;;5034957;28;20115;-69
2022/01/05 10:47:00;;;;;;;55.75;33.63;;;12.30;77.70;;;;;;5033869;28;20072;-69
2022/01/05 10:49:31;;;;;;;47.42;30.83;;;12.70;79.10;;;;;;5048604;28;20017;-68
2022/01/05 10:52:00;;;;;;;47.33;28.58;;;13.20;76.50;;;;;;5050080;28;20063;-68
2022/01/05 10:54:27;;;;;;;57.53;29.50;;;13.30;75.80;;;;;;5033459;28;20087;-69
2022/01/05 10:56:53;;;;;;;38.05;23.08;;;13.30;75.20;;;;;;5035633;28;20023;-70
2022/01/05 10:59:37;;;;;;;41.50;25.52;;;13.40;74.40;;;;;;5041811;28;20478;-69
2022/01/05 11:02:30;;;;;;;42.60;24.80;;;13.20;73.70;;;;;;5044045;28;20036;-67
2022/01/05 11:05:12;;;;;;;54.17;30.38;;;12.80;74.10;;;;;;5046746;28;20033;-67
2022/01/05 11:07:40;;;;;;;71.63;34.67;;;12.50;75.10;;;;;;5052391;28;20029;-68
2022/01/05 11:10:09;;;;;;;109.90;48.38;;;12.10;75.50;;;;;;5041500;28;20053;-70
2022/01/05 11:12:38;;;;;;;118.45;53.05;;;11.90;76.50;;;;;;5044527;28;20053;-68
2022/01/05 11:15:31;;;;;;;80.28;39.88;;;11.60;77.50;;;;;;5035327;28;20021;-69
2022/01/05 11:18:12;;;;;;;50.58;28.40;;;11.30;78.60;;;;;;5032543;28;20075;-69
2022/01/05 11:20:51;;;;;;;33.47;19.35;;;11.10;79.70;;;;;;5039871;28;20120;-70
2022/01/05 11:23:20;;;;;;;17.02;13.00;;;10.90;80.30;;;;;;5041987;28;20041;-71
2022/01/05 11:25:47;;;;;;;16.55;11.80;;;10.90;80.70;;;;;;5038134;28;20029;-68
2022/01/05 11:28:14;;;;;;;14.98;11.20;;;10.90;81.40;;;;;;5033022;28;20502;-68
2022/01/05 11:30:42;;;;;;;23.75;16.30;;;10.90;81.80;;;;;;5032647;28;20023;-68
2022/01/05 11:33:08;;;;;;;25.40;18.27;;;10.90;81.80;;;;;;5037724;28;20068;-70
2022/01/05 11:35:35;;;;;;;25.52;17.55;;;10.80;81.80;;;;;;5039634;28;20032;-67
2022/01/05 11:38:03;;;;;;;33.67;24.55;;;10.70;82.10;;;;;;5034711;28;20036;-67
2022/01/05 11:40:30;;;;;;;38.65;27.35;;;10.60;82.20;;;;;;5033712;28;20112;-68
2022/01/05 11:43:09;;;;;;;33.72;23.77;;;10.50;82.70;;;;;;5041713;28;20033;-67
2022/01/05 11:45:47;;;;;;;43.97;27.10;;;10.40;83.10;;;;;;5044181;28;20116;-68
2022/01/05 11:48:25;;;;;;;41.08;27.48;;;10.30;83.70;;;;;;5043074;28;20029;-68
2022/01/05 11:50:52;;;;;;;42.25;27.27;;;10.30;84.90;;;;;;5037798;28;20040;-67
2022/01/05 11:53:32;;;;;;;51.35;29.05;;;10.30;85.00;;;;;;5033888;28;20049;-68
2022/01/05 11:55:57;;;;;;;51.00;27.77;;;10.30;85.00;;;;;;5035743;28;20053;-68
2022/01/05 11:58:26;;;;;;;41.35;24.58;;;10.30;84.90;;;;;;5037633;28;20060;-68
2022/01/05 12:01:16;;;;;;;44.45;26.15;;;10.20;85.00;;;;;;5033087;28;20057;-68
2022/01/05 12:03:56;;;;;;;38.58;26.20;;;10.20;86.50;;;;;;5032901;28;20044;-68
2022/01/05 12:06:24;;;;;;;46.80;31.13;;;10.20;86.30;;;;;;5040973;28;20029;-68
2022/01/05 12:08:55;;;;;;;69.95;36.53;;;10.20;86.00;;;;;;5040213;28;20033;-68
2022/01/05 12:11:35;;;;;;;91.90;43.15;;;10.10;85.60;;;;;;5042395;28;20033;-68
2022/01/05 12:14:06;;;;;;;114.65;51.17;;;10.00;85.80;;;;;;5032947;28;20034;-68
2022/01/05 12:17:06;;;;;;;115.60;49.88;;;10.00;86.40;;;;;;5037975;28;20476;-67
2022/01/05 12:19:48;;;;;;;133.00;55.83;;;9.90;86.90;;;;;;5037240;28;20376;-68
2022/01/05 12:22:30;;;;;;;162.07;65.40;;;9.80;87.40;;;;;;5032357;28;20036;-68
2022/01/05 12:25:00;;;;;;;173.82;69.75;;;9.80;88.10;;;;;;5040176;28;20030;-69
2022/01/05 12:27:48;;;;;;;191.40;74.38;;;9.70;88.50;;;;;;5040131;28;20060;-69
2022/01/05 12:30:16;;;;;;;193.25;77.47;;;9.70;89.00;;;;;;5046225;28;20498;-68
2022/01/05 12:32:46;;;;;;;166.45;68.65;;;9.60;89.50;;;;;;5039812;28;20025;-68
2022/01/05 12:35:15;;;;;;;143.27;61.22;;;9.50;90.00;;;;;;5050268;28;20067;-68
2022/01/05 12:37:56;;;;;;;124.22;53.10;;;9.50;90.30;;;;;;5041006;28;20083;-68
2022/01/05 12:40:29;;;;;;;120.38;51.88;;;9.50;90.60;;;;;;5037041;28;20029;-67
2022/01/05 12:43:10;;;;;;;110.03;51.15;;;9.50;90.70;;;;;;5047648;28;20360;-68
2022/01/05 12:45:51;;;;;;;103.88;48.00;;;9.50;90.80;;;;;;5034390;28;20029;-70